Terminal Aerodrome Forecast
Issued by NWS

Home | Current Version | Previous Version | Text Only | Print | Product List | Glossary On
Versions: 1 2 3 4 5 6 7 8 9 10 11 12 13 14 15 16 17 18
125
FTUS43 KJKL 082345
TAFSJS
TAF
KSJS 082345Z 0900/0924 28007KT P6SM FEW001 FEW035
     FM090500 28006KT P6SM -SHSN SCT015 BKN025
     FM091700 27005KT P6SM BKN025
     FM092000 28005KT P6SM SCT035=

USA.gov is the U.S. government's official web portal to all federal, state and local government web resources and services.